X  Cerrar Datos meteorológicos de aviación METAR     LFLC Clermont-Ferrand Auvergne Airport
Temperatura
8°C Temperatura
4°C Punto de rocío
76% Humedad



Viento
10 KM/H
6 MPH
3 M/S
5 NUDO



10°
N
Condiciones actuales

Parcialmente nublado Parcialmente nublado
Presión 1017.92 (hPa) - 30.06 (inHg)
Visibilidad 6.2 (milla) - 10 (km)
Aeropuerto
Código de aeropuerto LFLC

localidad: Clermont-Ferrand Auvergne Airport
Distancia: 100 (km)

Metar:
LFLC 291530Z AUTO 01005KT 330V030 9999 FEW027 BKN056 08/04 Q1018 TEMPO SHRA BECMG SCT020TCU BKN035

Hora: 29-11-2022 16:30 CET